createdAt,value
2022-08-20T00:00:24.510Z,96176.13
2022-08-20T00:02:54.613Z,96181.63
2022-08-20T00:05:33.281Z,96180.13
2022-08-20T00:08:04.058Z,96181.50
2022-08-20T00:10:35.413Z,96179.19
2022-08-20T00:13:04.995Z,96176.75
2022-08-20T00:15:36.082Z,96179.31
2022-08-20T00:18:04.812Z,96182.34
2022-08-20T00:20:38.010Z,96181.06
2022-08-20T00:23:10.312Z,96181.41
2022-08-20T00:25:39.814Z,96181.19
2022-08-20T00:28:08.309Z,96178.13
2022-08-20T00:30:37.565Z,96175.69
2022-08-20T00:33:08.582Z,96186.66
2022-08-20T00:35:41.341Z,96188.88
2022-08-20T00:38:09.853Z,96196.72
2022-08-20T00:40:41.385Z,96188.41
2022-08-20T00:43:27.505Z,96187.81
2022-08-20T00:45:57.399Z,96182.13
2022-08-20T00:48:26.962Z,96180.00
2022-08-20T00:51:00.442Z,96170.88
2022-08-20T00:53:29.843Z,96179.31
2022-08-20T00:55:58.715Z,96166.91
2022-08-20T00:58:27.714Z,96172.41
2022-08-20T01:00:57.062Z,96171.34
2022-08-20T01:03:25.654Z,96163.78
2022-08-20T01:05:54.190Z,96165.50
2022-08-20T01:08:26.841Z,96175.66
2022-08-20T01:11:07.349Z,96170.66
2022-08-20T01:13:38.548Z,96173.03
2022-08-20T01:16:18.471Z,96176.06
2022-08-20T01:18:49.210Z,96183.63
2022-08-20T01:21:25.328Z,96184.19
2022-08-20T01:24:06.569Z,96188.59
2022-08-20T01:26:40.572Z,96192.53
2022-08-20T01:29:14.585Z,96194.84
2022-08-20T01:31:44.035Z,96203.41
2022-08-20T01:34:14.437Z,96200.53
2022-08-20T01:36:48.086Z,96191.72
2022-08-20T01:39:23.740Z,96195.72
2022-08-20T01:42:04.663Z,96182.41
2022-08-20T01:44:34.947Z,96187.09
2022-08-20T01:47:12.821Z,96178.00
2022-08-20T01:49:46.729Z,96178.81
2022-08-20T01:52:23.413Z,96185.34
2022-08-20T01:54:52.613Z,96179.88
2022-08-20T01:57:27.159Z,96183.41
2022-08-20T01:59:56.101Z,96175.47
2022-08-20T02:02:26.742Z,96189.84
2022-08-20T02:04:55.476Z,96184.56
2022-08-20T02:07:24.610Z,96186.78
2022-08-20T02:09:53.773Z,96192.75
2022-08-20T02:12:23.800Z,96190.28
2022-08-20T02:14:54.705Z,96188.78
2022-08-20T02:17:25.484Z,96189.63
2022-08-20T02:19:58.496Z,96205.81
2022-08-20T02:22:34.312Z,96203.69
2022-08-20T02:25:03.197Z,96215.38
2022-08-20T02:27:34.996Z,96201.06
2022-08-20T02:30:05.150Z,96202.88
2022-08-20T02:32:35.353Z,96204.84
2022-08-20T02:35:05.166Z,96202.50
2022-08-20T02:37:33.665Z,96203.44
2022-08-20T02:40:02.633Z,96207.50
2022-08-20T02:42:31.122Z,96199.59
2022-08-20T02:45:00.898Z,96198.66
2022-08-20T02:47:29.389Z,96207.41
2022-08-20T02:49:59.698Z,96218.72
2022-08-20T02:52:28.146Z,96216.75
2022-08-20T02:54:56.626Z,96216.31
2022-08-20T02:57:25.938Z,96209.41
2022-08-20T02:59:54.368Z,96208.13
2022-08-20T03:02:24.285Z,96196.09
2022-08-20T03:04:52.745Z,96198.56
2022-08-20T03:07:21.235Z,96199.03
2022-08-20T03:09:49.737Z,96199.50
2022-08-20T03:12:18.410Z,96192.13
2022-08-20T03:14:47.058Z,96194.47
2022-08-20T03:17:16.498Z,96188.75
2022-08-20T03:19:46.350Z,96194.09
2022-08-20T03:22:14.743Z,96198.66
2022-08-20T03:24:43.274Z,96196.56
2022-08-20T03:27:14.748Z,96198.19
2022-08-20T03:29:43.252Z,96203.44
2022-08-20T03:32:11.753Z,96207.88
2022-08-20T03:34:40.309Z,96203.75
2022-08-20T03:37:11.602Z,96199.88
2022-08-20T03:39:40.646Z,96211.16
2022-08-20T03:42:09.323Z,96213.50
2022-08-20T03:44:38.034Z,96210.69
2022-08-20T03:47:09.428Z,96216.13
2022-08-20T03:49:37.865Z,96213.69
2022-08-20T03:52:06.797Z,96219.06
2022-08-20T03:54:36.593Z,96224.66
2022-08-20T03:57:12.512Z,96226.59
2022-08-20T03:59:41.888Z,96234.88
2022-08-20T04:02:11.175Z,96238.63
2022-08-20T04:04:41.185Z,96234.28
2022-08-20T04:07:14.742Z,96237.28
2022-08-20T04:09:44.877Z,96241.59
2022-08-20T04:12:13.598Z,96239.28
2022-08-20T04:14:42.033Z,96241.16
2022-08-20T04:17:13.865Z,96237.56
2022-08-20T04:19:43.539Z,96246.06
2022-08-20T04:22:13.873Z,96238.91
2022-08-20T04:24:44.134Z,96247.84
2022-08-20T04:27:14.855Z,96254.13
2022-08-20T04:29:44.561Z,96251.91
2022-08-20T04:32:13.013Z,96250.94
2022-08-20T04:34:41.657Z,96250.34
2022-08-20T04:37:17.324Z,96252.34
2022-08-20T04:40:08.018Z,96251.53
2022-08-20T04:42:37.069Z,96246.25
2022-08-20T04:45:07.882Z,96253.09
2022-08-20T04:47:36.523Z,96252.94
2022-08-20T04:50:09.323Z,96248.63
2022-08-20T04:52:39.304Z,96255.56
2022-08-20T04:55:10.956Z,96257.19
2022-08-20T04:57:39.593Z,96268.75
2022-08-20T05:00:12.847Z,96266.28
2022-08-20T05:02:42.022Z,96281.09
2022-08-20T05:05:11.331Z,96281.78
2022-08-20T05:07:41.557Z,96282.81
2022-08-20T05:10:13.574Z,96287.34
2022-08-20T05:12:43.010Z,96284.06
2022-08-20T05:15:26.324Z,96293.53
2022-08-20T05:17:57.609Z,96288.53
2022-08-20T05:20:31.715Z,96300.94
2022-08-20T05:23:00.602Z,96301.53
2022-08-20T05:25:32.323Z,96308.28
2022-08-20T05:28:02.317Z,96299.44
2022-08-20T05:30:33.482Z,96301.81
2022-08-20T05:33:03.469Z,96307.25
2022-08-20T05:35:33.257Z,96301.81
2022-08-20T05:38:02.084Z,96307.19
2022-08-20T05:40:31.969Z,96304.50
2022-08-20T05:43:00.365Z,96305.75
2022-08-20T05:45:28.813Z,96315.50
2022-08-20T05:47:57.985Z,96317.38
2022-08-20T05:50:26.531Z,96320.06
2022-08-20T05:52:55.032Z,96314.09
2022-08-20T05:55:24.149Z,96314.31
2022-08-20T05:57:58.257Z,96317.69
2022-08-20T06:00:28.269Z,96301.00
2022-08-20T06:03:28.882Z,96316.19
2022-08-20T06:05:57.514Z,96319.25
2022-08-20T06:08:25.994Z,96319.91
2022-08-20T06:10:54.475Z,96311.75
2022-08-20T06:13:24.469Z,96317.72
2022-08-20T06:15:52.951Z,96319.75
2022-08-20T06:18:27.573Z,96324.31
2022-08-20T06:20:57.507Z,96335.91
2022-08-20T06:23:26.298Z,96331.13
2022-08-20T06:25:54.749Z,96331.75
2022-08-20T06:28:24.682Z,96333.53
2022-08-20T06:30:53.325Z,96339.03
2022-08-20T06:33:22.350Z,96335.91
2022-08-20T06:35:50.836Z,96337.91
2022-08-20T06:38:20.326Z,96340.84
2022-08-20T06:40:49.016Z,96336.28
2022-08-20T06:43:17.686Z,96339.63
2022-08-20T06:45:47.531Z,96336.34
2022-08-20T06:48:17.316Z,96343.44
2022-08-20T06:50:48.312Z,96336.88
2022-08-20T06:53:19.196Z,96340.03
2022-08-20T06:55:51.330Z,96340.03
2022-08-20T06:58:22.321Z,96344.56
2022-08-20T07:01:10.090Z,96350.16
2022-08-20T07:03:42.232Z,96352.84
2022-08-20T07:06:23.623Z,96358.22
2022-08-20T07:08:52.111Z,96349.50
2022-08-20T07:11:27.384Z,96359.78
2022-08-20T07:13:58.474Z,96357.22
2022-08-20T07:16:28.915Z,96356.56
2022-08-20T07:18:58.273Z,96358.78
2022-08-20T07:21:26.971Z,96367.69
2022-08-20T07:23:55.414Z,96375.09
2022-08-20T07:26:24.530Z,96366.47
2022-08-20T07:28:53.097Z,96370.81
2022-08-20T07:31:39.093Z,96373.03
2022-08-20T07:34:13.764Z,96368.94
2022-08-20T07:36:43.554Z,96366.25
2022-08-20T07:39:12.166Z,96367.06
2022-08-20T07:41:40.666Z,96361.47
2022-08-20T07:44:09.449Z,96374.66
2022-08-20T07:46:37.897Z,96370.72
2022-08-20T07:49:10.018Z,96370.84
2022-08-20T07:51:40.452Z,96373.72
2022-08-20T07:54:08.866Z,96376.78
2022-08-20T07:56:37.290Z,96383.41
2022-08-20T07:59:07.465Z,96387.16
2022-08-20T08:01:35.896Z,96389.38
2022-08-20T08:04:04.843Z,96383.19
2022-08-20T08:06:33.508Z,96391.47
2022-08-20T08:09:07.856Z,96386.91
2022-08-20T08:11:39.761Z,96385.66
2022-08-20T08:14:10.486Z,96400.69
2022-08-20T08:16:39.217Z,96389.16
2022-08-20T08:19:11.988Z,96391.41
2022-08-20T08:21:41.254Z,96395.69
2022-08-20T08:24:15.449Z,96396.28
2022-08-20T08:26:49.944Z,96398.97
2022-08-20T08:29:18.758Z,96397.34
2022-08-20T08:31:47.474Z,96410.19
2022-08-20T08:34:15.977Z,96409.81
2022-08-20T08:36:44.801Z,96413.09
2022-08-20T08:39:15.292Z,96408.91
2022-08-20T08:41:49.909Z,96410.09
2022-08-20T08:44:24.473Z,96401.81
2022-08-20T08:46:58.038Z,96403.59
2022-08-20T08:49:30.302Z,96414.84
2022-08-20T08:52:12.212Z,96420.13
2022-08-20T08:54:48.907Z,96424.59
2022-08-20T08:57:17.867Z,96421.44
2022-08-20T08:59:53.876Z,96413.75
2022-08-20T09:02:34.181Z,96407.91
2022-08-20T09:05:05.470Z,96404.56
2022-08-20T09:07:37.932Z,96402.47
2022-08-20T09:10:09.330Z,96400.34
2022-08-20T09:12:37.826Z,96410.19
2022-08-20T09:15:07.326Z,96410.53
2022-08-20T09:17:36.066Z,96415.97
2022-08-20T09:20:05.621Z,96408.59
2022-08-20T09:22:35.127Z,96408.81
2022-08-20T09:25:03.855Z,96418.06
2022-08-20T09:27:34.034Z,96418.63
2022-08-20T09:30:03.003Z,96421.47
2022-08-20T09:32:31.890Z,96412.22
2022-08-20T09:35:08.871Z,96409.56
2022-08-20T09:37:38.194Z,96414.28
2022-08-20T09:40:08.800Z,96408.44
2022-08-20T09:42:52.601Z,96408.53
2022-08-20T09:45:21.465Z,96417.03
2022-08-20T09:47:56.212Z,96424.31
2022-08-20T09:50:26.627Z,96418.44
2022-08-20T09:52:56.815Z,96409.78
2022-08-20T09:55:32.598Z,96415.16
2022-08-20T09:58:06.202Z,96415.22
2022-08-20T10:00:34.899Z,96421.94
2022-08-20T10:03:03.503Z,96417.06
2022-08-20T10:05:32.526Z,96433.50
2022-08-20T10:08:01.065Z,96440.66
2022-08-20T10:10:29.849Z,96430.91
2022-08-20T10:12:58.335Z,96431.16
2022-08-20T10:15:28.177Z,96422.91
2022-08-20T10:17:57.631Z,96422.38
2022-08-20T10:20:27.238Z,96438.31
2022-08-20T10:22:55.761Z,96437.97
2022-08-20T10:25:24.247Z,96442.31
2022-08-20T10:27:52.981Z,96434.03
2022-08-20T10:30:22.116Z,96433.53
2022-08-20T10:32:51.983Z,96443.00
2022-08-20T10:35:21.077Z,96438.16
2022-08-20T10:37:49.744Z,96443.69
2022-08-20T10:40:18.267Z,96451.28
2022-08-20T10:42:46.966Z,96447.78
2022-08-20T10:45:17.344Z,96438.13
2022-08-20T10:47:45.879Z,96434.16
2022-08-20T10:50:17.561Z,96440.22
2022-08-20T10:52:46.234Z,96441.78
2022-08-20T10:55:15.137Z,96440.59
2022-08-20T10:57:44.633Z,96439.41
2022-08-20T11:00:17.288Z,96444.84
2022-08-20T11:02:45.873Z,96447.63
2022-08-20T11:05:15.726Z,96440.44
2022-08-20T11:07:54.930Z,96443.97
2022-08-20T11:10:27.337Z,96441.81
2022-08-20T11:12:56.141Z,96444.16
2022-08-20T11:15:24.759Z,96437.88
2022-08-20T11:17:53.575Z,96438.13
2022-08-20T11:20:25.167Z,96432.69
2022-08-20T11:22:53.723Z,96437.97
2022-08-20T11:25:22.661Z,96437.50
2022-08-20T11:27:52.711Z,96429.44
2022-08-20T11:30:24.555Z,96437.50
2022-08-20T11:32:53.664Z,96432.13
2022-08-20T11:35:42.132Z,96427.56
2022-08-20T11:38:12.477Z,96416.81
2022-08-20T11:40:40.953Z,96420.91
2022-08-20T11:43:17.863Z,96418.22
2022-08-20T11:45:49.606Z,96417.19
2022-08-20T11:48:18.903Z,96418.13
2022-08-20T11:50:50.261Z,96414.13
2022-08-20T11:53:19.088Z,96424.53
2022-08-20T11:55:48.785Z,96418.56
2022-08-20T11:58:17.434Z,96422.09
2022-08-20T12:00:46.099Z,96427.47
2022-08-20T12:03:14.994Z,96423.59
2022-08-20T12:05:46.659Z,96418.47
2022-08-20T12:08:26.795Z,96418.09
2022-08-20T12:10:58.174Z,96421.47
2022-08-20T12:13:30.922Z,96432.69
2022-08-20T12:16:15.710Z,96432.53
2022-08-20T12:18:44.270Z,96419.56
2022-08-20T12:21:13.438Z,96424.56
2022-08-20T12:23:43.425Z,96420.94
2022-08-20T12:26:12.029Z,96424.25
2022-08-20T12:28:40.457Z,96433.34
2022-08-20T12:31:09.109Z,96428.13
2022-08-20T12:33:37.605Z,96433.88
2022-08-20T12:36:06.601Z,96426.81
2022-08-20T12:38:35.094Z,96423.56
2022-08-20T12:41:05.050Z,96430.44
2022-08-20T12:43:33.442Z,96431.94
2022-08-20T12:46:01.843Z,96434.84
2022-08-20T12:48:30.427Z,96433.47
2022-08-20T12:50:58.963Z,96433.56
2022-08-20T12:53:27.433Z,96428.63
2022-08-20T12:55:56.159Z,96438.34
2022-08-20T12:58:25.990Z,96438.97
2022-08-20T13:00:54.441Z,96441.91
2022-08-20T13:03:22.920Z,96436.53
2022-08-20T13:05:51.650Z,96433.41
2022-08-20T13:08:20.118Z,96431.31
2022-08-20T13:10:49.314Z,96423.66
2022-08-20T13:13:20.784Z,96415.97
2022-08-20T13:15:52.099Z,96413.50
2022-08-20T13:18:21.441Z,96424.63
2022-08-20T13:20:50.510Z,96422.09
2022-08-20T13:23:19.159Z,96429.03
2022-08-20T13:25:47.722Z,96428.94
2022-08-20T13:28:16.130Z,96425.81
2022-08-20T13:30:44.581Z,96422.09
2022-08-20T13:33:14.526Z,96414.03
2022-08-20T13:35:42.985Z,96422.88
2022-08-20T13:38:11.449Z,96424.16
2022-08-20T13:40:39.897Z,96418.44
2022-08-20T13:43:12.148Z,96415.63
2022-08-20T13:45:42.405Z,96414.19
2022-08-20T13:48:15.272Z,96416.44
2022-08-20T13:50:47.141Z,96411.66
2022-08-20T13:53:17.651Z,96415.75
2022-08-20T13:55:46.813Z,96412.25
2022-08-20T13:58:15.370Z,96406.06
2022-08-20T14:00:44.254Z,96406.88
2022-08-20T14:03:13.851Z,96395.72
2022-08-20T14:05:49.861Z,96390.28
2022-08-20T14:08:20.366Z,96387.75
2022-08-20T14:10:51.580Z,96386.03
2022-08-20T14:13:22.209Z,96382.44
2022-08-20T14:15:50.714Z,96381.06
2022-08-20T14:18:19.902Z,96370.81
2022-08-20T14:20:50.798Z,96362.91
2022-08-20T14:23:19.420Z,96370.84
2022-08-20T14:25:49.506Z,96363.53
2022-08-20T14:28:21.034Z,96371.72
2022-08-20T14:30:52.884Z,96364.00
2022-08-20T14:33:23.157Z,96368.69
2022-08-20T14:35:53.706Z,96369.28
2022-08-20T14:38:22.617Z,96367.19
2022-08-20T14:40:52.086Z,96374.75
2022-08-20T14:43:20.713Z,96371.63
2022-08-20T14:45:49.316Z,96373.28
2022-08-20T14:48:17.823Z,96373.28
2022-08-20T14:50:46.503Z,96365.22
2022-08-20T14:53:16.453Z,96359.59
2022-08-20T14:55:45.000Z,96356.69
2022-08-20T14:58:16.919Z,96355.16
2022-08-20T15:00:45.580Z,96361.16
2022-08-20T15:03:14.489Z,96358.25
2022-08-20T15:05:43.926Z,96353.94
2022-08-20T15:08:13.089Z,96354.16
2022-08-20T15:10:43.297Z,96343.59
2022-08-20T15:13:11.857Z,96349.19
2022-08-20T15:15:40.538Z,96343.81
2022-08-20T15:18:08.998Z,96344.03
2022-08-20T15:20:38.508Z,96347.81
2022-08-20T15:23:07.702Z,96347.81
2022-08-20T15:25:37.845Z,96345.81
2022-08-20T15:28:10.447Z,96348.81
2022-08-20T15:30:41.414Z,96353.25
2022-08-20T15:33:10.831Z,96358.72
2022-08-20T15:35:40.294Z,96365.84
2022-08-20T15:38:08.835Z,96392.81
2022-08-20T15:40:37.562Z,96408.84
2022-08-20T15:43:07.959Z,96399.78
2022-08-20T15:45:37.306Z,96413.22
2022-08-20T15:48:13.087Z,96413.59
2022-08-20T15:51:10.846Z,96430.66
2022-08-20T15:53:55.897Z,96435.28
2022-08-20T15:56:48.870Z,96432.16
2022-08-20T15:59:39.705Z,96443.03
2022-08-20T16:02:25.548Z,96441.63
2022-08-20T16:05:10.326Z,96434.97
2022-08-20T16:07:49.537Z,96444.69
2022-08-20T16:10:23.678Z,96451.03
2022-08-20T16:12:55.890Z,96451.28
2022-08-20T16:15:29.605Z,96449.66
2022-08-20T16:18:06.930Z,96452.56
2022-08-20T16:20:42.305Z,96443.31
2022-08-20T16:23:12.883Z,96442.63
2022-08-20T16:25:59.782Z,96442.69
2022-08-20T16:28:32.814Z,96450.47
2022-08-20T16:31:07.723Z,96456.56
2022-08-20T16:33:40.769Z,96456.56
2022-08-20T16:36:14.634Z,96447.50
2022-08-20T16:38:51.805Z,96452.63
2022-08-20T16:41:28.711Z,96452.91
2022-08-20T16:44:02.702Z,96454.69
2022-08-20T16:46:38.225Z,96467.69
2022-08-20T16:49:13.840Z,96464.03
2022-08-20T16:51:50.928Z,96470.28
2022-08-20T16:54:28.378Z,96475.22
2022-08-20T16:57:03.441Z,96477.44
2022-08-20T16:59:32.975Z,96473.94
2022-08-20T17:02:07.161Z,96479.91
2022-08-20T17:04:58.529Z,96483.00
2022-08-20T17:07:33.475Z,96477.72
2022-08-20T17:10:17.834Z,96476.25
2022-08-20T17:12:47.076Z,96485.47
2022-08-20T17:15:25.588Z,96486.94
2022-08-20T17:17:55.984Z,96485.28
2022-08-20T17:20:28.037Z,96474.94
2022-08-20T17:23:10.471Z,96476.56
2022-08-20T17:25:39.190Z,96476.34
2022-08-20T17:28:15.581Z,96473.28
2022-08-20T17:30:46.221Z,96486.69
2022-08-20T17:33:30.256Z,96486.09
2022-08-20T17:36:02.537Z,96485.69
2022-08-20T17:38:38.094Z,96494.13
2022-08-20T17:41:13.995Z,96487.91
2022-08-20T17:43:46.733Z,96486.03
2022-08-20T17:46:17.448Z,96478.38
2022-08-20T17:48:48.903Z,96483.47
2022-08-20T17:51:21.403Z,96486.31
2022-08-20T17:53:52.968Z,96485.84
2022-08-20T17:56:24.413Z,96483.78
2022-08-20T17:58:59.090Z,96489.34
2022-08-20T18:01:32.248Z,96489.34
2022-08-20T18:04:02.160Z,96483.56
2022-08-20T18:06:38.435Z,96481.25
2022-08-20T18:09:15.012Z,96476.72
2022-08-20T18:11:50.472Z,96475.28
2022-08-20T18:14:27.126Z,96477.59
2022-08-20T18:17:15.269Z,96478.63
2022-08-20T18:20:09.861Z,96481.16
2022-08-20T18:22:48.600Z,96477.28
2022-08-20T18:25:26.410Z,96479.38
2022-08-20T18:27:59.200Z,96478.09
2022-08-20T18:30:28.014Z,96478.09
2022-08-20T18:33:05.366Z,96477.50
2022-08-20T18:35:45.933Z,96481.22
2022-08-20T18:38:31.056Z,96484.94
2022-08-20T18:41:11.219Z,96482.56
2022-08-20T18:43:40.612Z,96482.38
2022-08-20T18:46:15.679Z,96480.56
2022-08-20T18:48:55.847Z,96493.38
2022-08-20T18:51:33.344Z,96490.72
2022-08-20T18:54:02.707Z,96492.22
2022-08-20T18:56:34.723Z,96488.50
2022-08-20T18:59:07.049Z,96487.91
2022-08-20T19:01:37.538Z,96492.22
2022-08-20T19:04:18.824Z,96489.75
2022-08-20T19:06:56.913Z,96490.78
2022-08-20T19:09:55.866Z,96489.13
2022-08-20T19:12:46.397Z,96489.13
2022-08-20T19:15:17.438Z,96489.75
2022-08-20T19:18:02.878Z,96492.25
2022-08-20T19:20:34.542Z,96498.63
2022-08-20T19:23:13.502Z,96490.78
2022-08-20T19:25:55.672Z,96499.06
2022-08-20T19:28:28.177Z,96502.16
2022-08-20T19:30:57.277Z,96493.75
2022-08-20T19:33:30.990Z,96490.25
2022-08-20T19:36:11.549Z,96492.72
2022-08-20T19:38:46.502Z,96486.13
2022-08-20T19:41:30.910Z,96486.13
2022-08-20T19:44:00.809Z,96486.34
2022-08-20T19:46:32.661Z,96484.69
2022-08-20T19:49:15.300Z,96480.41
2022-08-20T19:51:54.878Z,96472.13
2022-08-20T19:54:28.678Z,96476.66
2022-08-20T19:56:58.161Z,96475.19
2022-08-20T19:59:27.650Z,96477.44
2022-08-20T20:02:00.365Z,96472.09
2022-08-20T20:04:37.274Z,96473.13
2022-08-20T20:07:09.381Z,96473.13
2022-08-20T20:09:42.444Z,96470.88
2022-08-20T20:12:21.473Z,96469.44
2022-08-20T20:14:53.963Z,96461.44
2022-08-20T20:17:25.849Z,96472.00
2022-08-20T20:19:59.085Z,96464.59
2022-08-20T20:22:30.538Z,96466.28
2022-08-20T20:25:03.944Z,96459.31
2022-08-20T20:27:33.314Z,96459.50
2022-08-20T20:30:04.640Z,96461.59
2022-08-20T20:32:34.686Z,96459.97
2022-08-20T20:35:06.994Z,96452.97
2022-08-20T20:37:48.891Z,96456.91
2022-08-20T20:40:27.534Z,96447.22
2022-08-20T20:43:04.688Z,96451.97
2022-08-20T20:45:35.999Z,96446.00
2022-08-20T20:48:18.153Z,96449.50
2022-08-20T20:50:48.449Z,96449.09
2022-08-20T20:53:31.411Z,96458.16
2022-08-20T20:56:33.057Z,96449.69
2022-08-20T20:59:06.244Z,96450.09
2022-08-20T21:01:49.412Z,96449.25
2022-08-20T21:04:21.300Z,96453.19
2022-08-20T21:06:50.040Z,96454.22
2022-08-20T21:09:19.772Z,96447.00
2022-08-20T21:11:49.860Z,96451.53
2022-08-20T21:14:19.144Z,96450.75
2022-08-20T21:16:48.312Z,96453.19
2022-08-20T21:19:17.010Z,96451.34
2022-08-20T21:21:45.613Z,96438.16
2022-08-20T21:24:14.203Z,96440.19
2022-08-20T21:26:42.872Z,96439.31
2022-08-20T21:29:17.157Z,96437.25
2022-08-20T21:31:47.059Z,96440.97
2022-08-20T21:34:17.324Z,96435.81
2022-08-20T21:36:46.521Z,96436.03
2022-08-20T21:39:15.175Z,96440.78
2022-08-20T21:41:45.196Z,96434.00
2022-08-20T21:44:21.304Z,96438.34
2022-08-20T21:46:50.458Z,96429.47
2022-08-20T21:49:19.653Z,96434.00
2022-08-20T21:51:48.809Z,96435.66
2022-08-20T21:54:17.950Z,96435.44
2022-08-20T21:56:49.547Z,96433.34
2022-08-20T21:59:22.085Z,96435.81
2022-08-20T22:01:51.403Z,96436.88
2022-08-20T22:04:20.878Z,96439.56
2022-08-20T22:06:50.129Z,96438.38
2022-08-20T22:09:18.873Z,96437.34
2022-08-20T22:11:55.757Z,96436.09
2022-08-20T22:14:29.257Z,96431.81
2022-08-20T22:16:57.862Z,96427.25
2022-08-20T22:19:26.644Z,96430.75
2022-08-20T22:21:56.745Z,96431.00
2022-08-20T22:24:27.360Z,96426.88
2022-08-20T22:26:56.180Z,96429.78
2022-08-20T22:29:25.444Z,96425.50
2022-08-20T22:31:55.360Z,96424.03
2022-08-20T22:34:23.977Z,96421.38
2022-08-20T22:36:55.645Z,96419.91
2022-08-20T22:39:24.326Z,96422.97
2022-08-20T22:41:53.100Z,96432.66
2022-08-20T22:44:21.632Z,96416.16
2022-08-20T22:46:55.202Z,96424.59
2022-08-20T22:49:28.877Z,96427.03
2022-08-20T22:51:57.687Z,96427.66
2022-08-20T22:54:27.018Z,96419.19
2022-08-20T22:56:55.860Z,96420.81
2022-08-20T22:59:25.733Z,96418.53
2022-08-20T23:01:54.864Z,96419.34
2022-08-20T23:04:28.537Z,96419.97
2022-08-20T23:06:57.944Z,96415.66
2022-08-20T23:09:26.896Z,96418.16
2022-08-20T23:11:55.468Z,96419.00
2022-08-20T23:14:27.038Z,96416.53
2022-08-20T23:17:01.601Z,96410.97
2022-08-20T23:19:31.827Z,96415.13
2022-08-20T23:22:00.190Z,96414.13
2022-08-20T23:24:28.640Z,96417.63
2022-08-20T23:26:57.245Z,96407.75
2022-08-20T23:29:27.310Z,96398.28
2022-08-20T23:31:57.035Z,96398.13
2022-08-20T23:34:26.136Z,96396.25
2022-08-20T23:36:57.633Z,96401.22
2022-08-20T23:39:26.672Z,96404.91
2022-08-20T23:41:55.465Z,96400.41
2022-08-20T23:44:27.294Z,96403.09
2022-08-20T23:46:58.087Z,96396.91
2022-08-20T23:49:28.504Z,96390.97
2022-08-20T23:52:00.388Z,96391.38
2022-08-20T23:54:29.286Z,96388.94
2022-08-20T23:56:57.869Z,96381.09
2022-08-20T23:59:26.852Z,96386.03
